Time;durP1;ratioP1;P1;durP2;ratioP2;P2;SDS_P1;SDS_P2;PMS_P1;PMS_P2;Temp;Humidity;BMP_temperature;BMP_pressure;BME280_temperature;BME280_humidity;BME280_pressure;Samples;Min_cycle;Max_cycle;Signal;HPM_P1;HPM_P2
2022/12/06 00:01:14;;;;;;;4.88;2.85;;;7.10;91.50;;;;;;5114465;28;20028;-75
2022/12/06 00:03:42;;;;;;;5.35;2.22;;;7.10;91.50;;;;;;5113344;28;20115;-75
2022/12/06 00:06:16;;;;;;;7.38;3.00;;;7.00;91.50;;;;;;5114357;28;20020;-75
2022/12/06 00:08:42;;;;;;;6.43;3.13;;;7.00;91.50;;;;;;5114295;28;20027;-75
2022/12/06 00:11:11;;;;;;;6.63;2.72;;;7.00;91.50;;;;;;5113253;28;20047;-75
2022/12/06 00:13:37;;;;;;;5.97;2.58;;;7.00;91.50;;;;;;5114260;28;20041;-75
2022/12/06 00:16:05;;;;;;;6.50;2.85;;;7.10;91.50;;;;;;5113181;28;20024;-74
2022/12/06 00:18:35;;;;;;;6.50;2.33;;;7.10;91.50;;;;;;5113260;28;20406;-75
2022/12/06 00:21:11;;;;;;;5.88;2.17;;;7.10;91.50;;;;;;5114222;28;20016;-75
2022/12/06 00:23:40;;;;;;;6.85;2.45;;;7.10;91.50;;;;;;5114077;28;20023;-75
2022/12/06 00:26:07;;;;;;;7.38;2.25;;;7.10;91.50;;;;;;5114002;28;20028;-75
2022/12/06 00:28:34;;;;;;;4.00;2.00;;;7.10;91.80;;;;;;5113985;28;20032;-75
2022/12/06 00:31:01;;;;;;;4.93;2.00;;;7.00;91.50;;;;;;5112918;28;20486;-75
2022/12/06 00:33:28;;;;;;;6.22;2.50;;;7.00;91.50;;;;;;5113571;28;20024;-75
2022/12/06 00:35:58;;;;;;;5.68;2.45;;;7.00;91.50;;;;;;5113801;28;20103;-75
2022/12/06 00:38:25;;;;;;;5.10;2.53;;;7.10;91.50;;;;;;5113566;28;20051;-75
2022/12/06 00:40:58;;;;;;;4.82;2.55;;;7.10;91.50;;;;;;5113798;28;20028;-75
2022/12/06 00:43:24;;;;;;;8.02;2.05;;;7.10;91.50;;;;;;5113816;28;20027;-75
2022/12/06 00:45:50;;;;;;;4.07;1.95;;;7.10;91.50;;;;;;5112707;28;20483;-75
2022/12/06 00:48:16;;;;;;;7.55;2.17;;;7.10;91.50;;;;;;5113691;28;20050;-75
2022/12/06 00:50:41;;;;;;;4.38;2.17;;;7.10;91.50;;;;;;5113656;28;20036;-75
2022/12/06 00:53:07;;;;;;;5.22;1.90;;;7.10;91.50;;;;;;5113673;28;20024;-75
2022/12/06 00:55:33;;;;;;;5.38;2.25;;;7.10;91.50;;;;;;5113533;28;20020;-75
2022/12/06 00:57:59;;;;;;;5.93;2.13;;;7.10;91.50;;;;;;5112573;28;20047;-75
2022/12/06 01:00:24;;;;;;;4.90;1.90;;;7.10;91.50;;;;;;5113701;28;20035;-75
2022/12/06 01:02:50;;;;;;;4.35;1.90;;;7.10;91.50;;;;;;5113547;28;20034;-75
2022/12/06 01:05:16;;;;;;;5.72;2.10;;;7.10;91.50;;;;;;5113607;28;20024;-75
2022/12/06 01:07:42;;;;;;;3.55;1.80;;;7.10;91.50;;;;;;5113555;28;20025;-75
2022/12/06 01:10:07;;;;;;;5.22;2.00;;;7.10;91.50;;;;;;5112626;28;20020;-75
2022/12/06 01:12:33;;;;;;;4.82;1.85;;;7.10;91.50;;;;;;5113460;28;20016;-75
2022/12/06 01:14:59;;;;;;;4.57;1.90;;;7.10;91.50;;;;;;5113409;28;20032;-75
2022/12/06 01:17:24;;;;;;;5.95;2.10;;;7.10;91.50;;;;;;5112378;28;20020;-75
2022/12/06 01:19:50;;;;;;;6.35;2.00;;;7.10;91.60;;;;;;5112445;28;20035;-75
2022/12/06 01:22:15;;;;;;;5.57;2.30;;;7.10;91.50;;;;;;5112385;28;20028;-75
2022/12/06 01:24:41;;;;;;;5.90;2.20;;;7.10;91.50;;;;;;5113351;28;20080;-75
2022/12/06 01:27:07;;;;;;;5.53;2.05;;;7.10;91.50;;;;;;5095459;28;20066;-75
2022/12/06 01:29:32;;;;;;;4.95;1.77;;;7.20;91.50;;;;;;5113462;28;20024;-75
2022/12/06 01:31:58;;;;;;;5.38;2.40;;;7.10;91.50;;;;;;5113295;28;20095;-75
2022/12/06 01:34:25;;;;;;;4.53;2.03;;;7.10;91.50;;;;;;5113301;28;20052;-75
2022/12/06 01:36:50;;;;;;;5.25;2.20;;;7.10;91.50;;;;;;5113139;28;20032;-75
2022/12/06 01:39:16;;;;;;;6.13;2.20;;;7.20;91.50;;;;;;5113031;28;20048;-75
2022/12/06 01:41:41;;;;;;;3.78;2.00;;;7.20;91.50;;;;;;5112202;28;20411;-75
2022/12/06 01:44:41;;;;;;;5.97;2.60;;;7.20;91.50;;;;;;5113377;28;20025;-75
2022/12/06 01:47:11;;;;;;;4.10;2.22;;;7.20;91.50;;;;;;5117251;28;20030;-75
2022/12/06 01:49:37;;;;;;;5.55;2.15;;;7.20;91.50;;;;;;5117025;28;20039;-75
2022/12/06 01:52:09;;;;;;;4.43;2.05;;;7.20;91.50;;;;;;5116107;28;20028;-75
2022/12/06 01:54:35;;;;;;;3.42;1.60;;;7.20;91.50;;;;;;5117014;28;20020;-75
2022/12/06 01:57:05;;;;;;;5.25;2.35;;;7.20;91.50;;;;;;5116788;28;20025;-75
2022/12/06 01:59:31;;;;;;;4.35;2.05;;;7.20;91.50;;;;;;5116899;28;20079;-75
2022/12/06 02:01:57;;;;;;;5.40;2.20;;;7.10;91.50;;;;;;5116775;28;20070;-75
2022/12/06 02:04:23;;;;;;;4.60;2.08;;;7.20;91.50;;;;;;5116718;28;20016;-75
2022/12/06 02:06:51;;;;;;;5.20;2.13;;;7.20;91.60;;;;;;5116700;28;20471;-75
2022/12/06 02:09:18;;;;;;;5.57;2.10;;;7.20;91.60;;;;;;5116572;28;20031;-75
2022/12/06 02:11:46;;;;;;;5.57;1.83;;;7.20;91.60;;;;;;5116617;28;20060;-75
2022/12/06 02:14:16;;;;;;;4.65;2.17;;;7.20;91.60;;;;;;5116551;28;20032;-75
2022/12/06 02:17:01;;;;;;;4.63;2.40;;;7.20;91.60;;;;;;5115509;28;20092;-75
2022/12/06 02:20:11;;;;;;;5.70;2.85;;;7.20;91.50;;;;;;5116624;28;20020;-75
2022/12/06 02:22:39;;;;;;;5.00;2.42;;;7.20;91.50;;;;;;5116598;28;20036;-75
2022/12/06 02:25:27;;;;;;;5.30;2.65;;;7.20;91.50;;;;;;5116341;28;20035;-75
2022/12/06 02:28:18;;;;;;;6.75;2.90;;;7.20;91.50;;;;;;5115375;28;20032;-75
2022/12/06 02:30:52;;;;;;;6.25;2.65;;;7.20;91.50;;;;;;5115224;28;20024;-75
2022/12/06 02:33:34;;;;;;;4.68;2.85;;;7.20;91.50;;;;;;5115167;28;20028;-75
2022/12/06 02:36:05;;;;;;;6.53;2.65;;;7.10;91.50;;;;;;5115806;28;20114;-75
2022/12/06 02:38:38;;;;;;;6.68;3.13;;;7.10;91.50;;;;;;5114910;28;20040;-75
2022/12/06 02:41:12;;;;;;;6.97;3.50;;;7.20;91.60;;;;;;5116061;28;20054;-75
2022/12/06 02:43:42;;;;;;;4.47;2.50;;;7.20;91.60;;;;;;5116164;28;20016;-75
2022/12/06 02:46:11;;;;;;;4.95;2.88;;;7.20;91.60;;;;;;5115988;28;20020;-75
2022/12/06 02:48:38;;;;;;;6.05;3.10;;;7.20;91.60;;;;;;5115919;28;20027;-75
2022/12/06 02:51:12;;;;;;;7.05;2.88;;;7.20;91.60;;;;;;5114857;28;20028;-75
2022/12/06 02:53:42;;;;;;;7.57;2.83;;;7.20;91.60;;;;;;5115848;28;20375;-75
2022/12/06 02:56:08;;;;;;;7.07;2.95;;;7.20;91.60;;;;;;5115454;28;20032;-75
2022/12/06 02:58:37;;;;;;;6.05;3.22;;;7.20;91.60;;;;;;5115720;28;20028;-75
2022/12/06 03:01:13;;;;;;;5.00;2.85;;;7.20;91.60;;;;;;5115660;28;20027;-75
2022/12/06 03:04:00;;;;;;;6.07;3.25;;;7.20;91.50;;;;;;5115666;28;20016;-75
2022/12/06 03:07:08;;;;;;;7.85;3.08;;;7.20;91.50;;;;;;5115588;28;20084;-75
2022/12/06 03:09:42;;;;;;;7.43;3.53;;;7.20;91.50;;;;;;5114428;28;20467;-75
2022/12/06 03:12:29;;;;;;;6.00;2.75;;;7.20;91.50;;;;;;5114551;28;20052;-75
2022/12/06 03:15:06;;;;;;;7.40;3.13;;;7.20;91.50;;;;;;5115413;28;20016;-75
2022/12/06 03:17:51;;;;;;;6.97;3.78;;;7.20;91.50;;;;;;5114266;28;20032;-75
2022/12/06 03:20:57;;;;;;;6.65;3.15;;;7.20;91.50;;;;;;5114271;28;20020;-75
2022/12/06 03:23:31;;;;;;;8.68;3.20;;;7.20;91.50;;;;;;5033180;28;20026;-75
2022/12/06 03:26:00;;;;;;;7.32;3.10;;;7.20;91.50;;;;;;5033265;28;20049;-75
2022/12/06 03:28:28;;;;;;;6.00;2.90;;;7.20;91.50;;;;;;5078719;28;20035;-75
2022/12/06 03:31:01;;;;;;;6.75;3.22;;;7.20;91.50;;;;;;5115064;28;20047;-75
2022/12/06 03:33:28;;;;;;;;;;;7.20;91.60;;;;;;5115472;28;20020;-75
2022/12/06 03:35:56;;;;;;;5.43;2.90;;;7.20;91.50;;;;;;5114716;28;19908;-75
2022/12/06 03:38:39;;;;;;;7.18;3.03;;;7.10;91.50;;;;;;5114718;28;20403;-75
2022/12/06 03:41:07;;;;;;;6.72;3.35;;;7.20;91.60;;;;;;5113928;28;20027;-75
2022/12/06 03:43:33;;;;;;;7.50;3.10;;;7.20;91.60;;;;;;5114811;28;20049;-75
2022/12/06 03:46:09;;;;;;;7.75;2.88;;;7.20;91.60;;;;;;5114904;28;20026;-75
2022/12/06 03:48:41;;;;;;;6.35;3.00;;;7.20;91.60;;;;;;5114748;28;20058;-74
2022/12/06 03:51:10;;;;;;;6.20;3.30;;;7.20;91.60;;;;;;5113822;28;20024;-75
2022/12/06 03:53:46;;;;;;;7.75;3.05;;;7.20;91.60;;;;;;5114640;28;20028;-75
2022/12/06 03:56:11;;;;;;;4.82;2.63;;;7.20;91.60;;;;;;5114530;28;20085;-74
2022/12/06 03:58:37;;;;;;;6.57;3.25;;;7.20;91.50;;;;;;5114549;28;20033;-75
2022/12/06 04:01:03;;;;;;;5.25;3.15;;;7.20;91.50;;;;;;5114502;28;20020;-75
2022/12/06 04:03:29;;;;;;;6.90;3.42;;;7.20;91.50;;;;;;5113533;28;20024;-75
2022/12/06 04:05:55;;;;;;;7.35;3.17;;;7.20;91.50;;;;;;5114538;28;20083;-75
2022/12/06 04:08:20;;;;;;;8.00;3.55;;;7.20;91.50;;;;;;5113804;28;20055;-75
2022/12/06 04:10:46;;;;;;;8.32;3.15;;;7.20;91.50;;;;;;5113449;28;20035;-75
2022/12/06 04:13:12;;;;;;;7.72;3.22;;;7.20;91.50;;;;;;5113516;28;20032;-75
2022/12/06 04:15:38;;;;;;;9.70;3.35;;;7.20;91.50;;;;;;5114156;28;20028;-75
2022/12/06 04:18:13;;;;;;;5.93;3.17;;;7.20;91.50;;;;;;5114181;28;20046;-75
2022/12/06 04:23:37;;;;;;;7.53;3.28;;;7.20;91.50;;;;;;5114121;28;20027;-75
2022/12/06 04:26:05;;;;;;;7.28;3.65;;;7.20;91.50;;;;;;5114215;28;20058;-75
2022/12/06 04:39:30;;;;;;;9.65;3.28;;;7.20;91.40;;;;;;5113775;28;20039;-75
2022/12/06 04:44:41;;;;;;;8.90;3.55;;;7.20;91.40;;;;;;5113902;28;20038;-75
2022/12/06 04:47:07;;;;;;;8.52;3.72;;;7.20;91.40;;;;;;5112799;28;20024;-75
2022/12/06 04:49:34;;;;;;;7.43;3.40;;;7.20;91.50;;;;;;5113737;28;20411;-75
2022/12/06 04:52:00;;;;;;;8.77;3.45;;;7.20;91.50;;;;;;5113674;28;20035;-75
2022/12/06 04:54:28;;;;;;;7.15;3.22;;;7.20;91.50;;;;;;5113621;28;20048;-75
2022/12/06 04:56:54;;;;;;;11.18;4.13;;;7.20;91.50;;;;;;5113546;28;20016;-75
2022/12/06 04:59:20;;;;;;;9.13;3.95;;;7.20;91.50;;;;;;5112611;28;20032;-75
2022/12/06 05:01:46;;;;;;;7.97;3.80;;;7.20;91.50;;;;;;5113596;28;20024;-75
2022/12/06 05:04:11;;;;;;;7.60;3.65;;;7.20;91.50;;;;;;5113537;28;20020;-75
2022/12/06 05:06:37;;;;;;;9.02;3.78;;;7.20;91.80;;;;;;5112605;28;20047;-75
2022/12/06 05:09:03;;;;;;;10.73;3.33;;;7.30;91.50;;;;;;5112486;28;20479;-75
2022/12/06 05:11:29;;;;;;;8.55;3.70;;;7.20;91.50;;;;;;5112470;28;20016;-75
2022/12/06 05:13:55;;;;;;;11.80;3.35;;;7.30;91.50;;;;;;5113448;28;20099;-75
2022/12/06 05:16:20;;;;;;;10.35;3.95;;;7.30;91.50;;;;;;5113314;28;20484;-75
2022/12/06 05:18:46;;;;;;;10.15;3.67;;;7.30;91.50;;;;;;5114815;28;20024;-75
2022/12/06 05:21:14;;;;;;;8.73;3.70;;;7.30;91.50;;;;;;5117573;28;20047;-75
2022/12/06 05:23:40;;;;;;;11.85;3.88;;;7.20;91.50;;;;;;5117503;28;20019;-74
2022/12/06 05:26:10;;;;;;;7.78;3.50;;;7.30;91.50;;;;;;5116587;28;20478;-75
2022/12/06 05:28:35;;;;;;;8.77;3.20;;;7.30;91.50;;;;;;5117180;28;20028;-74
2022/12/06 05:31:01;;;;;;;8.38;3.75;;;7.30;91.40;;;;;;5117363;28;20402;-75
2022/12/06 05:33:27;;;;;;;7.47;3.60;;;7.30;91.40;;;;;;5117399;28;20053;-75
2022/12/06 05:35:53;;;;;;;8.15;3.75;;;7.30;91.40;;;;;;5117211;28;20024;-75
2022/12/06 05:38:19;;;;;;;9.18;4.00;;;7.30;91.40;;;;;;5117068;28;20044;-75
2022/12/06 05:40:46;;;;;;;9.05;3.92;;;7.30;91.40;;;;;;5117359;28;20020;-75
2022/12/06 05:43:12;;;;;;;8.35;3.60;;;7.30;91.50;;;;;;5117135;28;20020;-75
2022/12/06 05:45:38;;;;;;;8.73;3.60;;;7.30;91.50;;;;;;5117109;28;20020;-75
2022/12/06 05:48:05;;;;;;;13.52;4.40;;;7.30;91.40;;;;;;5117087;28;20012;-75
2022/12/06 05:50:30;;;;;;;9.73;3.42;;;7.30;91.40;;;;;;5117016;28;20012;-75
2022/12/06 05:52:57;;;;;;;6.32;3.10;;;7.30;91.40;;;;;;5116854;28;20070;-75
2022/12/06 05:55:24;;;;;;;8.70;3.20;;;7.30;91.40;;;;;;5116925;28;20020;-75
2022/12/06 05:57:50;;;;;;;10.13;3.63;;;7.30;91.40;;;;;;5116774;28;20035;-75
2022/12/06 06:00:18;;;;;;;8.93;3.63;;;7.30;91.40;;;;;;5116820;28;20101;-75
2022/12/06 06:02:44;;;;;;;11.30;3.42;;;7.30;91.40;;;;;;5116817;28;20024;-75
2022/12/06 06:05:10;;;;;;;9.20;3.65;;;7.20;91.30;;;;;;5115627;28;20043;-75
2022/12/06 06:07:36;;;;;;;5.55;2.75;;;7.20;91.30;;;;;;5116653;28;20076;-75
2022/12/06 06:10:02;;;;;;;19.13;3.97;;;7.30;91.30;;;;;;5115611;28;20033;-75
2022/12/06 06:12:28;;;;;;;8.73;3.53;;;7.20;91.30;;;;;;5116773;28;20107;-75
2022/12/06 06:14:53;;;;;;;6.18;3.13;;;7.20;91.70;;;;;;5116569;28;20039;-75
2022/12/06 06:17:19;;;;;;;10.82;3.17;;;7.20;91.30;;;;;;5115500;28;20187;-75
2022/12/06 06:19:44;;;;;;;8.77;3.00;;;7.20;91.30;;;;;;5115495;28;20032;-75
2022/12/06 06:22:10;;;;;;;8.63;3.40;;;7.20;91.20;;;;;;5115398;28;20069;-75
2022/12/06 06:24:38;;;;;;;10.80;3.40;;;7.20;91.20;;;;;;5116362;28;20024;-75
2022/12/06 06:27:04;;;;;;;5.20;2.58;;;7.20;91.20;;;;;;5116019;28;20020;-75
2022/12/06 06:29:30;;;;;;;6.97;2.67;;;7.20;91.20;;;;;;5116244;28;20032;-74
2022/12/06 06:31:55;;;;;;;6.90;3.08;;;7.20;91.20;;;;;;5115536;28;20032;-74
2022/12/06 06:34:21;;;;;;;8.10;2.78;;;7.20;91.20;;;;;;5115313;28;20044;-75
2022/12/06 06:36:47;;;;;;;8.60;2.60;;;7.20;91.20;;;;;;5116094;28;20055;-75
2022/12/06 06:39:13;;;;;;;6.82;2.95;;;7.20;91.20;;;;;;5114846;28;20575;-75
2022/12/06 06:41:38;;;;;;;7.63;2.60;;;7.20;91.10;;;;;;5115043;28;20445;-75
2022/12/06 06:44:04;;;;;;;6.82;2.70;;;7.20;91.10;;;;;;5115052;28;20028;-75
2022/12/06 06:46:30;;;;;;;6.72;3.33;;;7.20;91.10;;;;;;5115949;28;20032;-75
2022/12/06 06:48:55;;;;;;;7.10;2.92;;;7.20;91.10;;;;;;5115899;28;20028;-75
2022/12/06 06:51:21;;;;;;;5.53;2.33;;;7.10;91.10;;;;;;5115858;28;20036;-75
2022/12/06 06:53:47;;;;;;;4.90;2.40;;;7.10;91.10;;;;;;5115788;28;20028;-75
2022/12/06 06:56:13;;;;;;;5.78;3.00;;;7.10;91.10;;;;;;5115709;28;20059;-75
2022/12/06 06:58:38;;;;;;;7.53;3.13;;;7.20;91.10;;;;;;5114793;28;20088;-75
2022/12/06 07:01:07;;;;;;;7.95;3.13;;;7.10;91.10;;;;;;5115675;28;20031;-75
2022/12/06 07:03:33;;;;;;;7.43;3.58;;;7.20;91.10;;;;;;5114605;28;20028;-75
2022/12/06 07:06:06;;;;;;;8.88;3.92;;;7.10;91.00;;;;;;5115584;28;20024;-75
2022/12/06 07:08:32;;;;;;;9.80;3.42;;;7.10;91.00;;;;;;5115476;28;20049;-75
2022/12/06 07:10:58;;;;;;;11.90;3.65;;;7.10;91.00;;;;;;5114683;28;20028;-75
2022/12/06 07:13:25;;;;;;;10.18;3.75;;;7.10;91.10;;;;;;5115396;28;20049;-75
2022/12/06 07:15:51;;;;;;;9.63;3.65;;;7.10;91.10;;;;;;5115267;28;20035;-75
2022/12/06 07:18:18;;;;;;;6.90;3.20;;;7.10;91.40;;;;;;5114283;28;20023;-75
2022/12/06 07:20:44;;;;;;;7.88;2.85;;;7.10;91.10;;;;;;5115125;28;20020;-75
2022/12/06 07:23:10;;;;;;;8.27;3.05;;;7.10;91.10;;;;;;5114162;28;20025;-75
2022/12/06 07:25:37;;;;;;;7.25;2.97;;;7.10;91.10;;;;;;5114351;28;20016;-75
2022/12/06 07:28:04;;;;;;;6.03;2.60;;;7.10;91.00;;;;;;5115140;28;20039;-75
2022/12/06 07:30:30;;;;;;;8.27;2.90;;;7.10;91.00;;;;;;5115085;28;20024;-75
2022/12/06 07:32:56;;;;;;;7.70;2.95;;;7.10;91.00;;;;;;5115018;28;20017;-75
2022/12/06 07:35:22;;;;;;;8.35;3.30;;;7.00;91.00;;;;;;5115144;28;20107;-75
2022/12/06 07:37:47;;;;;;;11.00;2.85;;;7.10;91.10;;;;;;5113774;28;20028;-75
2022/12/06 07:40:15;;;;;;;9.90;3.20;;;7.00;91.00;;;;;;5114636;28;20503;-75
2022/12/06 07:45:25;;;;;;;9.00;2.95;;;7.00;91.00;;;;;;5114939;28;20035;-75
2022/12/06 07:47:50;;;;;;;7.40;2.80;;;7.10;91.10;;;;;;5113693;28;20028;-75
2022/12/06 07:50:19;;;;;;;7.78;2.97;;;7.10;91.10;;;;;;5114673;28;20111;-75
2022/12/06 07:52:47;;;;;;;4.65;2.53;;;7.00;91.00;;;;;;5114784;28;20016;-75
2022/12/06 07:55:13;;;;;;;8.05;2.85;;;7.00;91.00;;;;;;5114616;28;20036;-75
2022/12/06 07:57:39;;;;;;;6.07;2.75;;;7.00;91.10;;;;;;5114507;28;20020;-75
2022/12/06 08:00:08;;;;;;;5.97;2.63;;;7.00;91.10;;;;;;5114524;28;20031;-75
2022/12/06 08:02:34;;;;;;;7.80;2.72;;;7.10;91.10;;;;;;5114403;28;20016;-75
2022/12/06 08:04:59;;;;;;;5.97;2.30;;;7.10;91.10;;;;;;5113543;28;20036;-75
2022/12/06 08:07:26;;;;;;;7.65;2.60;;;7.10;91.10;;;;;;5113531;28;20024;-75
2022/12/06 08:09:52;;;;;;;7.07;2.55;;;7.10;91.10;;;;;;5114257;28;20024;-75
2022/12/06 08:12:22;;;;;;;4.93;2.30;;;7.10;91.10;;;;;;5114323;28;20407;-75
2022/12/06 08:14:47;;;;;;;11.60;2.00;;;7.10;91.10;;;;;;5114261;28;20024;-75
2022/12/06 08:17:13;;;;;;;9.00;2.78;;;7.10;91.10;;;;;;5114145;28;20061;-75
2022/12/06 08:19:40;;;;;;;6.60;2.20;;;7.10;91.10;;;;;;5114180;28;20028;-75
2022/12/06 08:22:06;;;;;;;4.75;2.22;;;7.10;91.10;;;;;;5114335;28;20029;-74
2022/12/06 08:24:31;;;;;;;4.85;2.08;;;7.10;91.10;;;;;;5114235;28;20040;-74
2022/12/06 08:26:58;;;;;;;4.40;2.35;;;7.10;91.10;;;;;;5113153;28;20063;-74
2022/12/06 08:29:23;;;;;;;7.13;2.10;;;7.20;91.00;;;;;;5114145;28;20073;-75
2022/12/06 08:31:49;;;;;;;4.22;2.17;;;7.20;91.00;;;;;;5113973;28;20024;-75
2022/12/06 08:34:15;;;;;;;5.75;2.25;;;7.10;91.40;;;;;;5113949;28;20020;-74
2022/12/06 08:36:41;;;;;;;8.35;2.40;;;7.10;91.00;;;;;;5113008;28;20028;-75
2022/12/06 08:39:09;;;;;;;5.38;2.13;;;7.10;91.00;;;;;;5113680;28;20055;-75
2022/12/06 08:44:18;;;;;;;7.30;2.28;;;7.20;90.90;;;;;;5113264;28;20035;-75
2022/12/06 08:46:45;;;;;;;5.18;1.80;;;7.20;90.90;;;;;;5113776;28;20028;-75
2022/12/06 08:49:11;;;;;;;4.13;1.83;;;7.20;90.90;;;;;;5112774;28;20043;-74
2022/12/06 08:51:37;;;;;;;4.05;2.08;;;7.20;91.00;;;;;;5112795;28;20038;-75
2022/12/06 08:54:04;;;;;;;3.90;2.20;;;7.20;90.90;;;;;;5113386;28;20088;-75
2022/12/06 08:56:30;;;;;;;6.95;1.75;;;7.30;91.00;;;;;;5112735;28;20039;-75
2022/12/06 08:58:56;;;;;;;6.50;2.28;;;7.30;90.90;;;;;;5113631;28;20024;-75
2022/12/06 09:01:26;;;;;;;7.72;2.22;;;7.30;90.90;;;;;;5112646;28;20080;-74
2022/12/06 09:03:52;;;;;;;4.00;2.08;;;7.30;90.90;;;;;;5112600;28;20016;-75
2022/12/06 09:06:18;;;;;;;7.20;2.25;;;7.30;90.90;;;;;;5113566;28;20076;-75
2022/12/06 09:08:45;;;;;;;4.40;2.15;;;7.30;90.90;;;;;;5113472;28;20020;-74
2022/12/06 09:11:12;;;;;;;4.45;2.20;;;7.30;90.90;;;;;;5112607;28;20028;-74
2022/12/06 09:13:38;;;;;;;4.75;1.95;;;7.30;90.90;;;;;;5112526;28;20076;-75
2022/12/06 09:16:06;;;;;;;4.18;2.20;;;7.40;90.80;;;;;;5113364;28;20024;-75
2022/12/06 09:18:31;;;;;;;5.32;2.47;;;7.30;90.80;;;;;;5113398;28;20073;-75
2022/12/06 09:20:57;;;;;;;4.70;2.05;;;7.40;90.80;;;;;;5113401;28;20020;-75
2022/12/06 09:23:23;;;;;;;4.78;2.33;;;7.40;90.80;;;;;;5112517;28;20028;-75
2022/12/06 09:25:48;;;;;;;5.75;2.40;;;7.40;90.80;;;;;;5113375;28;20028;-75
2022/12/06 09:28:14;;;;;;;4.60;1.88;;;7.40;90.80;;;;;;5113301;28;20111;-75
2022/12/06 09:30:40;;;;;;;6.38;2.25;;;7.40;90.80;;;;;;5112390;28;20016;-74
2022/12/06 09:33:05;;;;;;;4.32;2.20;;;7.40;90.80;;;;;;5113245;28;20474;-75
2022/12/06 09:35:32;;;;;;;6.60;2.45;;;7.50;90.80;;;;;;5113240;28;20024;-74
2022/12/06 09:37:58;;;;;;;5.70;2.08;;;7.60;90.80;;;;;;5112216;28;20032;-74
2022/12/06 09:40:57;;;;;;;5.50;2.28;;;8.40;91.10;;;;;;5112123;28;20047;-74
2022/12/06 09:43:46;;;;;;;4.40;2.30;;;9.20;90.60;;;;;;5113223;28;20111;-75
2022/12/06 09:46:45;;;;;;;5.18;2.08;;;9.70;89.20;;;;;;5113200;28;20024;-75
2022/12/06 09:49:27;;;;;;;4.97;2.40;;;10.20;88.00;;;;;;5112225;28;20051;-75
2022/12/06 09:52:22;;;;;;;5.75;2.40;;;10.50;85.90;;;;;;5113170;28;20020;-75
2022/12/06 09:55:09;;;;;;;5.32;2.00;;;11.10;84.90;;;;;;5041225;28;20041;-75
2022/12/06 09:57:53;;;;;;;4.82;2.22;;;11.40;82.30;;;;;;5113033;28;20046;-75
2022/12/06 10:00:22;;;;;;;4.43;2.22;;;11.50;81.20;;;;;;5113175;28;20020;-75
2022/12/06 10:03:09;;;;;;;3.78;1.80;;;11.50;80.00;;;;;;5113044;28;20027;-75
2022/12/06 10:05:56;;;;;;;3.10;1.90;;;11.50;79.90;;;;;;5114005;28;20039;-75
2022/12/06 10:08:56;;;;;;;4.28;1.73;;;11.60;79.10;;;;;;5116762;28;20020;-75
2022/12/06 10:11:42;;;;;;;3.92;1.83;;;11.60;78.90;;;;;;5116662;28;20028;-74
2022/12/06 10:14:10;;;;;;;5.22;1.90;;;11.90;78.50;;;;;;5116629;28;20024;-75
2022/12/06 10:16:54;;;;;;;2.70;1.35;;;12.50;76.90;;;;;;5116502;28;20024;-75
2022/12/06 10:19:35;;;;;;;8.38;2.00;;;12.90;75.60;;;;;;5116483;28;20020;-75
2022/12/06 10:22:14;;;;;;;2.90;1.70;;;13.20;73.80;;;;;;5116529;28;20030;-75
2022/12/06 10:25:04;;;;;;;4.15;1.65;;;13.40;72.90;;;;;;5116481;28;20024;-75
2022/12/06 10:27:47;;;;;;;4.05;1.83;;;13.50;71.50;;;;;;5116553;28;20225;-75
2022/12/06 10:30:14;;;;;;;4.85;1.90;;;13.30;71.70;;;;;;5116525;28;20028;-75
2022/12/06 10:32:53;;;;;;;4.60;1.40;;;13.00;72.00;;;;;;5116255;28;20039;-75
2022/12/06 10:35:42;;;;;;;3.33;1.35;;;12.70;72.40;;;;;;5116384;28;20024;-75
2022/12/06 10:38:24;;;;;;;3.17;1.60;;;12.40;72.90;;;;;;5116319;28;20096;-75
2022/12/06 10:41:08;;;;;;;2.40;1.43;;;12.10;72.90;;;;;;5116170;28;20125;-72
2022/12/06 10:44:12;;;;;;;4.28;1.50;;;11.80;73.50;;;;;;5116159;28;20253;-72
2022/12/06 10:47:05;;;;;;;2.72;1.30;;;11.60;74.10;;;;;;5114197;28;20052;-72
2022/12/06 10:49:58;;;;;;;2.35;1.45;;;11.40;74.40;;;;;;5114940;28;20024;-72
2022/12/06 10:52:45;;;;;;;2.97;1.58;;;11.30;74.90;;;;;;5116023;28;20025;-72
2022/12/06 10:55:17;;;;;;;6.03;1.67;;;11.10;75.50;;;;;;5115799;28;20035;-72
2022/12/06 10:58:02;;;;;;;;;;;11.00;75.80;;;;;;5116186;28;20055;-75
2022/12/06 11:00:33;;;;;;;3.95;1.17;;;11.00;76.20;;;;;;5115720;28;19967;-75
2022/12/06 11:03:20;;;;;;;5.28;1.73;;;10.80;76.20;;;;;;5115720;28;20050;-75
2022/12/06 11:05:52;;;;;;;2.22;1.30;;;10.70;76.60;;;;;;5114735;28;20113;-75
2022/12/06 11:08:31;;;;;;;4.85;1.73;;;10.50;76.30;;;;;;5114622;28;20020;-75
2022/12/06 11:10:59;;;;;;;5.47;1.40;;;10.40;76.90;;;;;;5115552;28;20031;-75
2022/12/06 11:13:42;;;;;;;2.90;1.10;;;10.40;77.20;;;;;;5115462;28;20110;-75
2022/12/06 11:16:19;;;;;;;2.50;1.40;;;10.30;76.90;;;;;;5115268;28;20020;-74
2022/12/06 11:18:46;;;;;;;2.40;1.20;;;10.30;76.70;;;;;;5114406;28;20012;-74
2022/12/06 11:21:27;;;;;;;5.43;1.48;;;10.20;77.20;;;;;;5115247;28;20020;-75
2022/12/06 11:24:21;;;;;;;4.32;1.35;;;10.20;77.20;;;;;;5115404;28;20020;-74
2022/12/06 11:27:20;;;;;;;3.50;1.40;;;10.30;77.50;;;;;;5115286;28;20028;-75
2022/12/06 11:29:48;;;;;;;2.35;1.27;;;10.30;77.30;;;;;;5115231;28;20020;-75
2022/12/06 11:32:15;;;;;;;2.15;1.10;;;10.30;77.30;;;;;;5115107;28;20016;-75
2022/12/06 11:34:48;;;;;;;3.55;1.40;;;10.20;77.00;;;;;;5115025;28;20024;-74
2022/12/06 11:37:19;;;;;;;3.75;1.40;;;10.30;76.90;;;;;;5114969;28;20030;-75
2022/12/06 11:39:50;;;;;;;2.25;1.20;;;10.20;76.90;;;;;;5114825;28;20067;-74
2022/12/06 11:42:23;;;;;;;3.42;1.33;;;10.20;77.00;;;;;;5115118;28;20059;-75
2022/12/06 11:44:55;;;;;;;2.75;1.30;;;10.20;76.50;;;;;;5114918;28;20020;-75
2022/12/06 11:47:21;;;;;;;2.63;1.42;;;10.20;76.60;;;;;;5114856;28;20024;-75
2022/12/06 11:49:49;;;;;;;3.30;1.70;;;10.20;75.90;;;;;;5114782;28;20024;-75
2022/12/06 11:52:26;;;;;;;2.13;1.20;;;10.20;75.80;;;;;;5114715;28;20024;-75
2022/12/06 11:55:06;;;;;;;4.55;1.42;;;10.20;75.70;;;;;;5114561;28;20034;-75
2022/12/06 11:57:41;;;;;;;3.97;1.70;;;10.30;75.30;;;;;;5113551;28;20066;-74
2022/12/06 12:00:10;;;;;;;4.68;1.35;;;10.40;74.80;;;;;;5113644;28;20020;-75
2022/12/06 12:02:36;;;;;;;3.28;1.75;;;10.40;74.50;;;;;;5114519;28;20020;-75
2022/12/06 12:05:29;;;;;;;5.30;1.73;;;10.30;72.30;;;;;;5114464;28;20070;-75
2022/12/06 12:08:15;;;;;;;2.85;1.52;;;10.30;74.10;;;;;;5109838;28;20123;-75
2022/12/06 12:10:43;;;;;;;5.03;1.63;;;10.40;74.40;;;;;;5114418;28;20024;-74
2022/12/06 12:16:11;;;;;;;4.68;1.92;;;10.60;73.90;;;;;;5114260;28;20061;-74
2022/12/06 12:18:40;;;;;;;3.80;1.40;;;10.70;73.10;;;;;;5114230;28;20039;-75
2022/12/06 12:21:06;;;;;;;2.42;1.40;;;10.60;72.50;;;;;;5114168;28;20035;-75
2022/12/06 12:23:44;;;;;;;3.58;1.50;;;10.50;72.90;;;;;;5113192;28;20020;-75
2022/12/06 12:26:16;;;;;;;3.90;1.60;;;10.60;73.40;;;;;;5114088;28;20052;-75
2022/12/06 12:28:44;;;;;;;4.55;1.73;;;10.60;73.30;;;;;;5113582;28;20028;-75
2022/12/06 12:31:10;;;;;;;4.20;1.60;;;10.60;72.80;;;;;;5114037;28;20083;-75
2022/12/06 12:33:36;;;;;;;2.25;1.20;;;10.60;73.20;;;;;;5113964;28;20035;-75
2022/12/06 12:36:01;;;;;;;6.28;1.65;;;10.50;72.70;;;;;;5113890;28;20054;-75
2022/12/06 12:38:59;;;;;;;5.82;1.65;;;10.50;72.90;;;;;;5112810;28;20117;-75
2022/12/06 12:41:39;;;;;;;2.70;1.48;;;10.50;72.50;;;;;;5113907;28;20034;-75
2022/12/06 12:44:17;;;;;;;4.57;1.42;;;10.40;72.60;;;;;;5113876;28;20459;-75
2022/12/06 12:46:53;;;;;;;5.20;1.80;;;10.40;72.80;;;;;;5113774;28;20028;-75
2022/12/06 12:49:29;;;;;;;3.75;1.50;;;10.30;72.70;;;;;;5113846;28;20031;-75
2022/12/06 12:51:56;;;;;;;2.97;1.27;;;10.20;72.50;;;;;;5112691;28;20114;-75
2022/12/06 12:54:31;;;;;;;6.25;1.75;;;10.10;72.70;;;;;;5113698;28;20051;-74
2022/12/06 12:56:58;;;;;;;5.20;1.30;;;10.20;72.70;;;;;;5113764;28;20024;-75
2022/12/06 12:59:26;;;;;;;3.88;2.08;;;10.10;73.30;;;;;;5112677;28;20421;-75
2022/12/06 13:01:57;;;;;;;3.85;1.52;;;10.10;73.30;;;;;;5113552;28;20016;-75
2022/12/06 13:04:35;;;;;;;5.18;1.77;;;10.10;73.80;;;;;;5113567;28;20027;-75
2022/12/06 13:07:08;;;;;;;4.20;1.90;;;10.20;74.10;;;;;;5113591;28;20032;-75
2022/12/06 13:10:00;;;;;;;4.90;1.75;;;10.20;73.90;;;;;;5113620;28;20024;-75
2022/12/06 13:12:38;;;;;;;3.30;1.55;;;10.10;73.90;;;;;;5112478;28;20087;-75
2022/12/06 13:15:13;;;;;;;4.68;1.70;;;10.00;73.30;;;;;;5113628;28;20039;-75
2022/12/06 13:17:42;;;;;;;2.85;1.58;;;10.00;73.40;;;;;;5112371;28;20051;-75
2022/12/06 13:20:25;;;;;;;5.88;1.70;;;9.90;74.00;;;;;;5112471;28;20021;-76
2022/12/06 13:22:55;;;;;;;3.38;1.45;;;10.00;74.50;;;;;;5113379;28;20027;-76
2022/12/06 13:25:21;;;;;;;4.47;1.95;;;10.00;74.60;;;;;;5113359;28;20028;-76
2022/12/06 13:27:52;;;;;;;4.43;2.00;;;10.00;74.70;;;;;;5113354;28;20024;-78
2022/12/06 13:30:24;;;;;;;3.58;1.90;;;10.00;74.00;;;;;;5113369;28;20058;-78
2022/12/06 13:32:51;;;;;;;3.90;1.73;;;9.90;73.90;;;;;;5112304;28;20020;-77
2022/12/06 13:35:30;;;;;;;5.95;1.73;;;9.80;73.60;;;;;;5112262;28;20020;-75
2022/12/06 13:38:15;;;;;;;3.35;1.30;;;9.70;73.70;;;;;;5113362;28;20032;-75
2022/12/06 13:40:46;;;;;;;3.95;1.45;;;9.60;73.70;;;;;;5113179;28;20048;-75